sensor_id;sensor_type;location;lat;lon;timestamp;P1;durP1;ratioP1;P2;durP2;ratioP2
11986;SDS011;6053;51.382;6.768;2023-09-08T00:00:17;0.80;;;0.80;;
11986;SDS011;6053;51.382;6.768;2023-09-08T00:02:45;0.80;;;0.80;;
11986;SDS011;6053;51.382;6.768;2023-09-08T00:05:23;0.60;;;0.60;;
11986;SDS011;6053;51.382;6.768;2023-09-08T00:07:55;0.80;;;0.80;;
11986;SDS011;6053;51.382;6.768;2023-09-08T00:10:24;0.70;;;0.70;;
11986;SDS011;6053;51.382;6.768;2023-09-08T00:12:52;0.80;;;0.80;;
11986;SDS011;6053;51.382;6.768;2023-09-08T00:15:26;0.90;;;0.90;;
11986;SDS011;6053;51.382;6.768;2023-09-08T00:17:55;0.70;;;0.70;;
11986;SDS011;6053;51.382;6.768;2023-09-08T00:20:24;0.75;;;0.75;;
11986;SDS011;6053;51.382;6.768;2023-09-08T00:22:52;0.77;;;0.77;;
11986;SDS011;6053;51.382;6.768;2023-09-08T00:25:31;0.90;;;0.90;;
11986;SDS011;6053;51.382;6.768;2023-09-08T00:28:00;0.77;;;0.77;;
11986;SDS011;6053;51.382;6.768;2023-09-08T00:30:38;0.70;;;0.70;;
11986;SDS011;6053;51.382;6.768;2023-09-08T00:33:07;0.80;;;0.80;;
11986;SDS011;6053;51.382;6.768;2023-09-08T00:35:43;0.70;;;0.70;;
11986;SDS011;6053;51.382;6.768;2023-09-08T00:38:15;0.80;;;0.80;;
11986;SDS011;6053;51.382;6.768;2023-09-08T00:40:45;0.60;;;0.60;;
11986;SDS011;6053;51.382;6.768;2023-09-08T00:43:16;0.70;;;0.70;;
11986;SDS011;6053;51.382;6.768;2023-09-08T00:45:54;1.00;;;1.00;;
11986;SDS011;6053;51.382;6.768;2023-09-08T00:48:31;0.90;;;0.90;;
11986;SDS011;6053;51.382;6.768;2023-09-08T00:51:01;0.80;;;0.80;;
11986;SDS011;6053;51.382;6.768;2023-09-08T00:53:31;0.93;;;0.83;;
11986;SDS011;6053;51.382;6.768;2023-09-08T00:56:08;0.82;;;0.82;;
11986;SDS011;6053;51.382;6.768;2023-09-08T00:58:38;0.80;;;0.80;;
11986;SDS011;6053;51.382;6.768;2023-09-08T01:01:12;0.67;;;0.67;;
11986;SDS011;6053;51.382;6.768;2023-09-08T01:03:44;0.90;;;0.90;;
11986;SDS011;6053;51.382;6.768;2023-09-08T01:06:26;1.30;;;1.00;;
11986;SDS011;6053;51.382;6.768;2023-09-08T01:08:56;0.80;;;0.80;;
11986;SDS011;6053;51.382;6.768;2023-09-08T01:11:25;0.63;;;0.63;;
11986;SDS011;6053;51.382;6.768;2023-09-08T01:13:54;0.77;;;0.77;;
11986;SDS011;6053;51.382;6.768;2023-09-08T01:16:30;0.80;;;0.80;;
11986;SDS011;6053;51.382;6.768;2023-09-08T01:19:11;0.88;;;0.88;;
11986;SDS011;6053;51.382;6.768;2023-09-08T01:21:51;0.77;;;0.77;;
11986;SDS011;6053;51.382;6.768;2023-09-08T01:25:02;0.73;;;0.73;;
11986;SDS011;6053;51.382;6.768;2023-09-08T01:27:40;0.70;;;0.70;;
11986;SDS011;6053;51.382;6.768;2023-09-08T01:30:14;0.90;;;0.90;;
11986;SDS011;6053;51.382;6.768;2023-09-08T01:32:44;0.70;;;0.70;;
11986;SDS011;6053;51.382;6.768;2023-09-08T01:35:16;0.77;;;0.77;;
11986;SDS011;6053;51.382;6.768;2023-09-08T01:37:50;0.80;;;0.80;;
11986;SDS011;6053;51.382;6.768;2023-09-08T01:40:20;0.70;;;0.70;;
11986;SDS011;6053;51.382;6.768;2023-09-08T01:42:48;0.90;;;0.90;;
11986;SDS011;6053;51.382;6.768;2023-09-08T01:45:17;0.70;;;0.70;;
11986;SDS011;6053;51.382;6.768;2023-09-08T01:47:46;0.87;;;0.73;;
11986;SDS011;6053;51.382;6.768;2023-09-08T01:50:17;1.03;;;0.77;;
11986;SDS011;6053;51.382;6.768;2023-09-08T01:52:48;0.90;;;0.90;;
11986;SDS011;6053;51.382;6.768;2023-09-08T01:55:16;0.80;;;0.80;;
11986;SDS011;6053;51.382;6.768;2023-09-08T01:57:46;0.70;;;0.70;;
11986;SDS011;6053;51.382;6.768;2023-09-08T02:00:14;1.00;;;0.80;;
11986;SDS011;6053;51.382;6.768;2023-09-08T02:02:43;0.90;;;0.90;;
11986;SDS011;6053;51.382;6.768;2023-09-08T02:05:14;0.80;;;0.80;;
11986;SDS011;6053;51.382;6.768;2023-09-08T02:07:43;0.70;;;0.70;;
11986;SDS011;6053;51.382;6.768;2023-09-08T02:10:11;1.00;;;0.90;;
11986;SDS011;6053;51.382;6.768;2023-09-08T02:12:40;0.80;;;0.80;;
11986;SDS011;6053;51.382;6.768;2023-09-08T02:15:11;0.90;;;0.90;;
11986;SDS011;6053;51.382;6.768;2023-09-08T02:17:40;0.75;;;0.75;;
11986;SDS011;6053;51.382;6.768;2023-09-08T02:20:14;0.70;;;0.70;;
11986;SDS011;6053;51.382;6.768;2023-09-08T02:22:43;0.70;;;0.70;;
11986;SDS011;6053;51.382;6.768;2023-09-08T02:25:17;0.73;;;0.73;;
11986;SDS011;6053;51.382;6.768;2023-09-08T02:27:48;0.73;;;0.73;;
11986;SDS011;6053;51.382;6.768;2023-09-08T02:30:18;0.90;;;0.90;;
11986;SDS011;6053;51.382;6.768;2023-09-08T02:32:52;0.80;;;0.70;;
11986;SDS011;6053;51.382;6.768;2023-09-08T02:35:23;0.80;;;0.80;;
11986;SDS011;6053;51.382;6.768;2023-09-08T02:37:51;0.77;;;0.77;;
11986;SDS011;6053;51.382;6.768;2023-09-08T02:40:23;0.85;;;0.80;;
11986;SDS011;6053;51.382;6.768;2023-09-08T02:42:51;0.75;;;0.75;;
11986;SDS011;6053;51.382;6.768;2023-09-08T02:45:28;0.70;;;0.70;;
11986;SDS011;6053;51.382;6.768;2023-09-08T02:48:07;0.80;;;0.80;;
11986;SDS011;6053;51.382;6.768;2023-09-08T02:50:38;0.70;;;0.70;;
11986;SDS011;6053;51.382;6.768;2023-09-08T02:53:10;0.80;;;0.80;;
11986;SDS011;6053;51.382;6.768;2023-09-08T02:55:46;0.80;;;0.80;;
11986;SDS011;6053;51.382;6.768;2023-09-08T02:58:17;0.77;;;0.73;;
11986;SDS011;6053;51.382;6.768;2023-09-08T03:00:56;0.90;;;0.90;;
11986;SDS011;6053;51.382;6.768;2023-09-08T03:03:24;0.87;;;0.87;;
11986;SDS011;6053;51.382;6.768;2023-09-08T03:05:55;0.80;;;0.80;;
11986;SDS011;6053;51.382;6.768;2023-09-08T03:08:29;0.80;;;0.80;;
11986;SDS011;6053;51.382;6.768;2023-09-08T03:11:00;0.70;;;0.70;;
11986;SDS011;6053;51.382;6.768;2023-09-08T03:13:42;0.90;;;0.90;;
11986;SDS011;6053;51.382;6.768;2023-09-08T03:16:15;1.02;;;0.80;;
11986;SDS011;6053;51.382;6.768;2023-09-08T03:18:44;0.80;;;0.80;;
11986;SDS011;6053;51.382;6.768;2023-09-08T03:21:13;1.40;;;0.80;;
11986;SDS011;6053;51.382;6.768;2023-09-08T03:23:42;0.90;;;0.90;;
11986;SDS011;6053;51.382;6.768;2023-09-08T03:26:26;0.90;;;0.90;;
11986;SDS011;6053;51.382;6.768;2023-09-08T03:28:55;0.80;;;0.80;;
11986;SDS011;6053;51.382;6.768;2023-09-08T03:31:27;0.80;;;0.80;;
11986;SDS011;6053;51.382;6.768;2023-09-08T03:33:59;0.80;;;0.80;;
11986;SDS011;6053;51.382;6.768;2023-09-08T03:36:33;1.00;;;1.00;;
11986;SDS011;6053;51.382;6.768;2023-09-08T03:39:07;0.90;;;0.90;;
11986;SDS011;6053;51.382;6.768;2023-09-08T03:41:36;0.80;;;0.80;;
11986;SDS011;6053;51.382;6.768;2023-09-08T03:44:04;0.70;;;0.70;;
11986;SDS011;6053;51.382;6.768;2023-09-08T03:46:37;1.08;;;0.90;;
11986;SDS011;6053;51.382;6.768;2023-09-08T03:49:08;0.82;;;0.82;;
11986;SDS011;6053;51.382;6.768;2023-09-08T03:51:36;0.80;;;0.80;;
11986;SDS011;6053;51.382;6.768;2023-09-08T03:54:05;0.90;;;0.90;;
11986;SDS011;6053;51.382;6.768;2023-09-08T03:56:33;0.80;;;0.80;;
11986;SDS011;6053;51.382;6.768;2023-09-08T03:59:05;1.00;;;1.00;;
11986;SDS011;6053;51.382;6.768;2023-09-08T04:01:33;1.20;;;0.82;;
11986;SDS011;6053;51.382;6.768;2023-09-08T04:04:11;1.00;;;0.90;;
11986;SDS011;6053;51.382;6.768;2023-09-08T04:06:41;0.90;;;0.90;;
11986;SDS011;6053;51.382;6.768;2023-09-08T04:09:09;0.80;;;0.80;;
11986;SDS011;6053;51.382;6.768;2023-09-08T04:11:40;1.23;;;1.17;;
11986;SDS011;6053;51.382;6.768;2023-09-08T04:14:12;0.80;;;0.80;;
11986;SDS011;6053;51.382;6.768;2023-09-08T04:16:49;0.90;;;0.90;;
11986;SDS011;6053;51.382;6.768;2023-09-08T04:19:17;0.90;;;0.90;;
11986;SDS011;6053;51.382;6.768;2023-09-08T04:21:52;1.00;;;1.00;;
11986;SDS011;6053;51.382;6.768;2023-09-08T04:24:20;0.98;;;0.98;;
11986;SDS011;6053;51.382;6.768;2023-09-08T04:26:51;0.80;;;0.80;;
11986;SDS011;6053;51.382;6.768;2023-09-08T04:29:20;1.05;;;0.93;;
11986;SDS011;6053;51.382;6.768;2023-09-08T04:34:36;0.90;;;0.90;;
11986;SDS011;6053;51.382;6.768;2023-09-08T04:37:10;0.80;;;0.80;;
11986;SDS011;6053;51.382;6.768;2023-09-08T04:39:39;0.88;;;0.88;;
11986;SDS011;6053;51.382;6.768;2023-09-08T04:42:10;0.80;;;0.80;;
11986;SDS011;6053;51.382;6.768;2023-09-08T04:44:42;0.90;;;0.90;;
11986;SDS011;6053;51.382;6.768;2023-09-08T04:47:14;1.00;;;1.00;;
11986;SDS011;6053;51.382;6.768;2023-09-08T04:49:43;1.03;;;1.03;;
11986;SDS011;6053;51.382;6.768;2023-09-08T04:52:12;1.25;;;1.10;;
11986;SDS011;6053;51.382;6.768;2023-09-08T04:54:41;0.90;;;0.90;;
11986;SDS011;6053;51.382;6.768;2023-09-08T04:57:15;1.05;;;1.05;;
11986;SDS011;6053;51.382;6.768;2023-09-08T04:59:50;1.00;;;1.00;;
11986;SDS011;6053;51.382;6.768;2023-09-08T05:02:20;0.90;;;0.90;;
11986;SDS011;6053;51.382;6.768;2023-09-08T05:04:51;1.27;;;1.20;;
11986;SDS011;6053;51.382;6.768;2023-09-08T05:07:20;0.77;;;0.77;;
11986;SDS011;6053;51.382;6.768;2023-09-08T05:09:48;0.90;;;0.90;;
11986;SDS011;6053;51.382;6.768;2023-09-08T05:12:17;0.80;;;0.80;;
11986;SDS011;6053;51.382;6.768;2023-09-08T05:14:57;0.80;;;0.80;;
11986;SDS011;6053;51.382;6.768;2023-09-08T05:17:39;1.00;;;1.00;;
11986;SDS011;6053;51.382;6.768;2023-09-08T05:20:08;1.00;;;1.00;;
11986;SDS011;6053;51.382;6.768;2023-09-08T05:22:37;1.10;;;1.10;;
11986;SDS011;6053;51.382;6.768;2023-09-08T05:25:14;1.10;;;0.90;;
11986;SDS011;6053;51.382;6.768;2023-09-08T05:27:43;0.93;;;0.93;;
11986;SDS011;6053;51.382;6.768;2023-09-08T05:30:12;1.23;;;1.13;;
11986;SDS011;6053;51.382;6.768;2023-09-08T05:32:42;0.90;;;0.90;;
11986;SDS011;6053;51.382;6.768;2023-09-08T05:35:13;0.95;;;0.95;;
11986;SDS011;6053;51.382;6.768;2023-09-08T05:37:42;0.98;;;0.98;;
11986;SDS011;6053;51.382;6.768;2023-09-08T05:40:13;1.10;;;1.10;;
11986;SDS011;6053;51.382;6.768;2023-09-08T05:42:41;1.30;;;1.17;;
11986;SDS011;6053;51.382;6.768;2023-09-08T05:45:11;1.10;;;1.10;;
11986;SDS011;6053;51.382;6.768;2023-09-08T05:47:39;1.25;;;1.08;;
11986;SDS011;6053;51.382;6.768;2023-09-08T05:50:09;0.95;;;0.93;;
11986;SDS011;6053;51.382;6.768;2023-09-08T05:52:40;0.90;;;0.90;;
11986;SDS011;6053;51.382;6.768;2023-09-08T05:55:11;1.10;;;1.00;;
11986;SDS011;6053;51.382;6.768;2023-09-08T05:57:40;1.08;;;0.98;;
11986;SDS011;6053;51.382;6.768;2023-09-08T06:00:11;1.88;;;1.08;;
11986;SDS011;6053;51.382;6.768;2023-09-08T06:02:47;1.30;;;1.10;;
11986;SDS011;6053;51.382;6.768;2023-09-08T06:05:16;1.10;;;1.00;;
11986;SDS011;6053;51.382;6.768;2023-09-08T06:07:47;0.90;;;0.90;;
11986;SDS011;6053;51.382;6.768;2023-09-08T06:10:32;1.38;;;1.00;;
11986;SDS011;6053;51.382;6.768;2023-09-08T06:13:00;1.10;;;1.00;;
11986;SDS011;6053;51.382;6.768;2023-09-08T06:15:28;1.10;;;1.10;;
11986;SDS011;6053;51.382;6.768;2023-09-08T06:17:58;0.90;;;0.90;;
11986;SDS011;6053;51.382;6.768;2023-09-08T06:20:27;0.88;;;0.88;;
11986;SDS011;6053;51.382;6.768;2023-09-08T06:23:01;0.90;;;0.90;;
11986;SDS011;6053;51.382;6.768;2023-09-08T06:25:38;0.93;;;0.80;;
11986;SDS011;6053;51.382;6.768;2023-09-08T06:28:07;1.40;;;1.10;;
11986;SDS011;6053;51.382;6.768;2023-09-08T06:30:41;0.80;;;0.80;;
11986;SDS011;6053;51.382;6.768;2023-09-08T06:33:11;1.10;;;1.10;;
11986;SDS011;6053;51.382;6.768;2023-09-08T06:35:40;1.70;;;1.30;;
11986;SDS011;6053;51.382;6.768;2023-09-08T06:38:08;1.80;;;1.40;;
11986;SDS011;6053;51.382;6.768;2023-09-08T06:40:39;1.50;;;1.13;;
11986;SDS011;6053;51.382;6.768;2023-09-08T06:43:10;2.23;;;1.10;;
11986;SDS011;6053;51.382;6.768;2023-09-08T06:45:38;1.02;;;1.00;;
11986;SDS011;6053;51.382;6.768;2023-09-08T06:48:07;1.20;;;1.00;;
11986;SDS011;6053;51.382;6.768;2023-09-08T06:50:39;1.35;;;1.25;;
11986;SDS011;6053;51.382;6.768;2023-09-08T06:53:08;1.30;;;1.15;;
11986;SDS011;6053;51.382;6.768;2023-09-08T06:55:37;2.22;;;1.20;;
11986;SDS011;6053;51.382;6.768;2023-09-08T06:58:10;0.97;;;0.90;;
11986;SDS011;6053;51.382;6.768;2023-09-08T07:00:38;1.88;;;1.60;;
11986;SDS011;6053;51.382;6.768;2023-09-08T07:03:07;2.65;;;1.73;;
11986;SDS011;6053;51.382;6.768;2023-09-08T07:05:45;2.38;;;1.63;;
11986;SDS011;6053;51.382;6.768;2023-09-08T07:08:13;1.90;;;1.77;;
11986;SDS011;6053;51.382;6.768;2023-09-08T07:10:42;4.50;;;1.70;;
11986;SDS011;6053;51.382;6.768;2023-09-08T07:13:11;2.15;;;1.70;;
11986;SDS011;6053;51.382;6.768;2023-09-08T07:15:39;3.22;;;1.80;;
11986;SDS011;6053;51.382;6.768;2023-09-08T07:18:10;2.10;;;1.75;;
11986;SDS011;6053;51.382;6.768;2023-09-08T07:20:40;2.00;;;1.50;;
11986;SDS011;6053;51.382;6.768;2023-09-08T07:23:18;1.00;;;0.90;;
11986;SDS011;6053;51.382;6.768;2023-09-08T07:25:46;1.27;;;1.17;;
11986;SDS011;6053;51.382;6.768;2023-09-08T07:28:18;2.67;;;1.83;;
11986;SDS011;6053;51.382;6.768;2023-09-08T07:30:49;2.03;;;1.57;;
11986;SDS011;6053;51.382;6.768;2023-09-08T07:33:20;1.60;;;1.50;;
11986;SDS011;6053;51.382;6.768;2023-09-08T07:35:53;1.70;;;1.60;;
11986;SDS011;6053;51.382;6.768;2023-09-08T07:38:25;3.00;;;1.75;;
11986;SDS011;6053;51.382;6.768;2023-09-08T07:40:53;2.53;;;1.60;;
11986;SDS011;6053;51.382;6.768;2023-09-08T07:43:21;2.63;;;1.55;;
11986;SDS011;6053;51.382;6.768;2023-09-08T07:46:02;2.30;;;1.20;;
11986;SDS011;6053;51.382;6.768;2023-09-08T07:48:30;2.38;;;1.35;;
11986;SDS011;6053;51.382;6.768;2023-09-08T07:51:01;2.00;;;1.48;;
11986;SDS011;6053;51.382;6.768;2023-09-08T07:53:30;1.90;;;1.53;;
11986;SDS011;6053;51.382;6.768;2023-09-08T07:55:58;1.70;;;1.58;;
11986;SDS011;6053;51.382;6.768;2023-09-08T07:58:28;1.75;;;1.35;;
11986;SDS011;6053;51.382;6.768;2023-09-08T08:00:56;1.85;;;1.42;;
11986;SDS011;6053;51.382;6.768;2023-09-08T08:03:24;3.40;;;1.50;;
11986;SDS011;6053;51.382;6.768;2023-09-08T08:05:53;3.08;;;1.40;;
11986;SDS011;6053;51.382;6.768;2023-09-08T08:08:28;1.42;;;1.33;;
11986;SDS011;6053;51.382;6.768;2023-09-08T08:10:57;1.40;;;1.30;;
11986;SDS011;6053;51.382;6.768;2023-09-08T08:13:26;1.40;;;1.30;;
11986;SDS011;6053;51.382;6.768;2023-09-08T08:15:55;1.73;;;1.15;;
11986;SDS011;6053;51.382;6.768;2023-09-08T08:18:26;2.23;;;1.37;;
11986;SDS011;6053;51.382;6.768;2023-09-08T08:21:01;1.40;;;1.10;;
11986;SDS011;6053;51.382;6.768;2023-09-08T08:23:39;1.67;;;1.27;;
11986;SDS011;6053;51.382;6.768;2023-09-08T08:26:07;1.30;;;1.20;;
11986;SDS011;6053;51.382;6.768;2023-09-08T08:28:36;2.05;;;1.40;;
11986;SDS011;6053;51.382;6.768;2023-09-08T08:31:04;3.40;;;1.33;;
11986;SDS011;6053;51.382;6.768;2023-09-08T08:33:32;1.27;;;1.25;;
11986;SDS011;6053;51.382;6.768;2023-09-08T08:36:01;2.80;;;1.25;;
11986;SDS011;6053;51.382;6.768;2023-09-08T08:38:31;1.30;;;1.30;;
11986;SDS011;6053;51.382;6.768;2023-09-08T08:41:06;2.20;;;1.40;;
11986;SDS011;6053;51.382;6.768;2023-09-08T08:43:34;2.60;;;1.30;;
11986;SDS011;6053;51.382;6.768;2023-09-08T08:46:04;2.30;;;1.38;;
11986;SDS011;6053;51.382;6.768;2023-09-08T08:48:32;1.70;;;1.10;;
11986;SDS011;6053;51.382;6.768;2023-09-08T08:51:14;1.13;;;1.10;;
11986;SDS011;6053;51.382;6.768;2023-09-08T08:53:46;3.08;;;1.42;;
11986;SDS011;6053;51.382;6.768;2023-09-08T08:56:14;1.65;;;1.40;;
11986;SDS011;6053;51.382;6.768;2023-09-08T08:58:43;3.20;;;1.10;;
11986;SDS011;6053;51.382;6.768;2023-09-08T09:01:12;1.35;;;1.10;;
11986;SDS011;6053;51.382;6.768;2023-09-08T09:03:43;0.70;;;0.70;;
11986;SDS011;6053;51.382;6.768;2023-09-08T09:06:14;2.00;;;1.60;;
11986;SDS011;6053;51.382;6.768;2023-09-08T09:08:44;1.50;;;1.40;;
11986;SDS011;6053;51.382;6.768;2023-09-08T09:11:19;2.73;;;1.17;;
11986;SDS011;6053;51.382;6.768;2023-09-08T09:13:50;3.42;;;1.40;;
11986;SDS011;6053;51.382;6.768;2023-09-08T09:16:21;1.90;;;1.50;;
11986;SDS011;6053;51.382;6.768;2023-09-08T09:18:53;1.27;;;1.17;;
11986;SDS011;6053;51.382;6.768;2023-09-08T09:21:23;2.33;;;1.27;;
11986;SDS011;6053;51.382;6.768;2023-09-08T09:24:09;1.95;;;1.30;;
11986;SDS011;6053;51.382;6.768;2023-09-08T09:26:52;1.40;;;1.30;;
11986;SDS011;6053;51.382;6.768;2023-09-08T09:29:29;3.30;;;1.60;;
11986;SDS011;6053;51.382;6.768;2023-09-08T09:32:02;1.23;;;1.13;;
11986;SDS011;6053;51.382;6.768;2023-09-08T09:34:34;2.95;;;1.58;;
11986;SDS011;6053;51.382;6.768;2023-09-08T09:37:03;2.85;;;1.50;;
11986;SDS011;6053;51.382;6.768;2023-09-08T09:39:34;1.50;;;1.40;;
11986;SDS011;6053;51.382;6.768;2023-09-08T09:42:02;1.67;;;1.25;;
11986;SDS011;6053;51.382;6.768;2023-09-08T09:44:31;1.83;;;1.40;;
11986;SDS011;6053;51.382;6.768;2023-09-08T09:47:03;2.42;;;1.42;;
11986;SDS011;6053;51.382;6.768;2023-09-08T09:49:41;2.67;;;1.45;;
11986;SDS011;6053;51.382;6.768;2023-09-08T09:52:11;2.95;;;1.42;;
11986;SDS011;6053;51.382;6.768;2023-09-08T09:54:42;2.60;;;1.50;;
11986;SDS011;6053;51.382;6.768;2023-09-08T09:57:13;3.40;;;1.45;;
11986;SDS011;6053;51.382;6.768;2023-09-08T09:59:42;1.38;;;1.20;;
11986;SDS011;6053;51.382;6.768;2023-09-08T10:02:11;1.40;;;1.30;;
11986;SDS011;6053;51.382;6.768;2023-09-08T10:04:41;2.97;;;1.45;;
11986;SDS011;6053;51.382;6.768;2023-09-08T10:07:13;2.97;;;1.58;;
11986;SDS011;6053;51.382;6.768;2023-09-08T10:09:44;4.45;;;1.80;;
11986;SDS011;6053;51.382;6.768;2023-09-08T10:12:16;2.28;;;1.65;;
11986;SDS011;6053;51.382;6.768;2023-09-08T10:14:45;1.90;;;1.70;;
11986;SDS011;6053;51.382;6.768;2023-09-08T10:17:22;4.05;;;2.08;;
11986;SDS011;6053;51.382;6.768;2023-09-08T10:19:58;3.77;;;2.60;;
11986;SDS011;6053;51.382;6.768;2023-09-08T10:22:38;3.77;;;3.07;;
11986;SDS011;6053;51.382;6.768;2023-09-08T10:25:12;2.30;;;1.67;;
11986;SDS011;6053;51.382;6.768;2023-09-08T10:27:42;1.38;;;1.13;;
11986;SDS011;6053;51.382;6.768;2023-09-08T10:30:11;7.57;;;3.15;;
11986;SDS011;6053;51.382;6.768;2023-09-08T10:32:42;1.50;;;1.40;;
11986;SDS011;6053;51.382;6.768;2023-09-08T10:35:12;1.33;;;1.20;;
11986;SDS011;6053;51.382;6.768;2023-09-08T10:37:40;2.80;;;1.63;;
11986;SDS011;6053;51.382;6.768;2023-09-08T10:40:23;1.80;;;1.40;;
11986;SDS011;6053;51.382;6.768;2023-09-08T10:45:39;4.25;;;1.60;;
11986;SDS011;6053;51.382;6.768;2023-09-08T10:48:11;1.70;;;1.20;;
11986;SDS011;6053;51.382;6.768;2023-09-08T10:50:42;2.90;;;1.25;;
11986;SDS011;6053;51.382;6.768;2023-09-08T10:53:14;3.13;;;1.60;;
11986;SDS011;6053;51.382;6.768;2023-09-08T10:55:45;2.92;;;1.50;;
11986;SDS011;6053;51.382;6.768;2023-09-08T10:58:40;2.67;;;1.40;;
11986;SDS011;6053;51.382;6.768;2023-09-08T11:01:12;1.42;;;1.33;;
11986;SDS011;6053;51.382;6.768;2023-09-08T11:03:44;3.10;;;1.40;;
11986;SDS011;6053;51.382;6.768;2023-09-08T11:06:17;1.88;;;1.08;;
11986;SDS011;6053;51.382;6.768;2023-09-08T11:08:48;3.33;;;1.27;;
11986;SDS011;6053;51.382;6.768;2023-09-08T11:11:26;1.50;;;0.93;;
11986;SDS011;6053;51.382;6.768;2023-09-08T11:13:54;1.70;;;1.13;;
11986;SDS011;6053;51.382;6.768;2023-09-08T11:16:30;0.60;;;0.60;;
11986;SDS011;6053;51.382;6.768;2023-09-08T11:19:02;0.95;;;0.65;;
11986;SDS011;6053;51.382;6.768;2023-09-08T11:21:33;1.40;;;0.90;;
11986;SDS011;6053;51.382;6.768;2023-09-08T11:24:05;1.98;;;1.30;;
11986;SDS011;6053;51.382;6.768;2023-09-08T11:26:42;1.10;;;1.00;;
11986;SDS011;6053;51.382;6.768;2023-09-08T11:29:13;1.98;;;1.50;;
11986;SDS011;6053;51.382;6.768;2023-09-08T11:31:41;1.08;;;0.85;;
11986;SDS011;6053;51.382;6.768;2023-09-08T11:34:17;1.90;;;1.20;;
11986;SDS011;6053;51.382;6.768;2023-09-08T11:36:54;0.70;;;0.70;;
11986;SDS011;6053;51.382;6.768;2023-09-08T11:39:24;1.40;;;0.77;;
11986;SDS011;6053;51.382;6.768;2023-09-08T11:41:57;2.70;;;1.42;;
11986;SDS011;6053;51.382;6.768;2023-09-08T11:44:28;1.52;;;1.40;;
11986;SDS011;6053;51.382;6.768;2023-09-08T11:46:57;1.40;;;0.80;;
11986;SDS011;6053;51.382;6.768;2023-09-08T11:49:26;1.98;;;1.65;;
11986;SDS011;6053;51.382;6.768;2023-09-08T11:52:02;2.78;;;1.05;;
11986;SDS011;6053;51.382;6.768;2023-09-08T11:54:31;1.50;;;1.40;;
11986;SDS011;6053;51.382;6.768;2023-09-08T11:57:04;1.25;;;1.15;;
11986;SDS011;6053;51.382;6.768;2023-09-08T11:59:34;3.72;;;1.70;;
11986;SDS011;6053;51.382;6.768;2023-09-08T12:02:03;2.33;;;1.67;;
11986;SDS011;6053;51.382;6.768;2023-09-08T12:04:35;2.72;;;1.80;;
11986;SDS011;6053;51.382;6.768;2023-09-08T12:07:04;4.77;;;1.70;;
11986;SDS011;6053;51.382;6.768;2023-09-08T12:09:32;0.70;;;0.70;;
11986;SDS011;6053;51.382;6.768;2023-09-08T12:12:05;1.90;;;1.60;;
11986;SDS011;6053;51.382;6.768;2023-09-08T12:14:42;3.30;;;1.38;;
11986;SDS011;6053;51.382;6.768;2023-09-08T12:17:13;2.38;;;1.50;;
11986;SDS011;6053;51.382;6.768;2023-09-08T12:19:44;3.45;;;1.40;;
11986;SDS011;6053;51.382;6.768;2023-09-08T12:22:12;0.60;;;0.52;;
11986;SDS011;6053;51.382;6.768;2023-09-08T12:24:55;2.05;;;1.10;;
11986;SDS011;6053;51.382;6.768;2023-09-08T12:27:26;1.65;;;1.55;;
11986;SDS011;6053;51.382;6.768;2023-09-08T12:29:55;3.22;;;1.50;;
11986;SDS011;6053;51.382;6.768;2023-09-08T12:32:26;4.03;;;1.50;;
11986;SDS011;6053;51.382;6.768;2023-09-08T12:34:57;1.77;;;1.40;;
11986;SDS011;6053;51.382;6.768;2023-09-08T12:37:27;1.57;;;1.10;;
11986;SDS011;6053;51.382;6.768;2023-09-08T12:39:59;1.13;;;1.03;;
11986;SDS011;6053;51.382;6.768;2023-09-08T12:42:29;1.67;;;1.30;;
11986;SDS011;6053;51.382;6.768;2023-09-08T12:45:04;1.30;;;1.20;;
11986;SDS011;6053;51.382;6.768;2023-09-08T12:47:37;3.20;;;1.50;;
11986;SDS011;6053;51.382;6.768;2023-09-08T12:50:11;1.17;;;1.17;;
11986;SDS011;6053;51.382;6.768;2023-09-08T12:52:40;0.95;;;0.95;;
11986;SDS011;6053;51.382;6.768;2023-09-08T12:55:08;2.08;;;1.35;;
11986;SDS011;6053;51.382;6.768;2023-09-08T12:57:38;1.52;;;1.30;;
11986;SDS011;6053;51.382;6.768;2023-09-08T13:00:10;2.20;;;1.43;;
11986;SDS011;6053;51.382;6.768;2023-09-08T13:02:40;0.88;;;0.80;;
11986;SDS011;6053;51.382;6.768;2023-09-08T13:05:12;1.00;;;1.00;;
11986;SDS011;6053;51.382;6.768;2023-09-08T13:07:40;1.67;;;1.20;;
11986;SDS011;6053;51.382;6.768;2023-09-08T13:10:09;4.20;;;1.30;;
11986;SDS011;6053;51.382;6.768;2023-09-08T13:12:41;1.67;;;1.20;;
11986;SDS011;6053;51.382;6.768;2023-09-08T13:15:09;1.02;;;0.93;;
11986;SDS011;6053;51.382;6.768;2023-09-08T13:17:41;1.53;;;1.30;;
11986;SDS011;6053;51.382;6.768;2023-09-08T13:20:10;2.25;;;1.40;;
11986;SDS011;6053;51.382;6.768;2023-09-08T13:22:39;1.20;;;0.70;;
11986;SDS011;6053;51.382;6.768;2023-09-08T13:25:11;0.70;;;0.70;;
11986;SDS011;6053;51.382;6.768;2023-09-08T13:27:41;0.80;;;0.80;;
11986;SDS011;6053;51.382;6.768;2023-09-08T13:30:13;2.07;;;1.47;;
11986;SDS011;6053;51.382;6.768;2023-09-08T13:32:44;2.25;;;1.48;;
11986;SDS011;6053;51.382;6.768;2023-09-08T13:35:12;1.83;;;1.40;;
11986;SDS011;6053;51.382;6.768;2023-09-08T13:37:41;1.20;;;1.02;;
11986;SDS011;6053;51.382;6.768;2023-09-08T13:40:12;1.75;;;1.20;;
11986;SDS011;6053;51.382;6.768;2023-09-08T13:42:42;0.82;;;0.82;;
11986;SDS011;6053;51.382;6.768;2023-09-08T13:45:14;2.50;;;1.58;;
11986;SDS011;6053;51.382;6.768;2023-09-08T13:47:42;3.42;;;1.10;;
11986;SDS011;6053;51.382;6.768;2023-09-08T13:50:14;1.80;;;1.30;;
11986;SDS011;6053;51.382;6.768;2023-09-08T13:52:43;2.05;;;1.40;;
11986;SDS011;6053;51.382;6.768;2023-09-08T13:55:15;1.90;;;1.40;;
11986;SDS011;6053;51.382;6.768;2023-09-08T13:58:04;1.83;;;1.15;;
11986;SDS011;6053;51.382;6.768;2023-09-08T14:00:36;1.10;;;1.00;;
11986;SDS011;6053;51.382;6.768;2023-09-08T14:03:10;1.30;;;1.00;;
11986;SDS011;6053;51.382;6.768;2023-09-08T14:05:46;2.00;;;1.27;;
11986;SDS011;6053;51.382;6.768;2023-09-08T14:08:16;1.63;;;0.90;;
11986;SDS011;6053;51.382;6.768;2023-09-08T14:10:54;1.50;;;1.20;;
11986;SDS011;6053;51.382;6.768;2023-09-08T14:13:40;1.90;;;1.23;;
11986;SDS011;6053;51.382;6.768;2023-09-08T14:16:09;1.73;;;0.70;;
11986;SDS011;6053;51.382;6.768;2023-09-08T14:18:39;2.70;;;1.30;;
11986;SDS011;6053;51.382;6.768;2023-09-08T14:21:07;1.00;;;0.50;;
11986;SDS011;6053;51.382;6.768;2023-09-08T14:23:42;1.35;;;0.82;;
11986;SDS011;6053;51.382;6.768;2023-09-08T14:26:10;0.63;;;0.63;;
11986;SDS011;6053;51.382;6.768;2023-09-08T14:28:42;0.63;;;0.63;;
11986;SDS011;6053;51.382;6.768;2023-09-08T14:31:10;1.42;;;1.00;;
11986;SDS011;6053;51.382;6.768;2023-09-08T14:33:47;2.10;;;1.00;;
11986;SDS011;6053;51.382;6.768;2023-09-08T14:36:17;1.95;;;1.33;;
11986;SDS011;6053;51.382;6.768;2023-09-08T14:38:45;1.20;;;0.88;;
11986;SDS011;6053;51.382;6.768;2023-09-08T14:41:14;2.65;;;1.20;;
11986;SDS011;6053;51.382;6.768;2023-09-08T14:43:46;2.85;;;1.40;;
11986;SDS011;6053;51.382;6.768;2023-09-08T14:46:15;0.90;;;0.90;;
11986;SDS011;6053;51.382;6.768;2023-09-08T14:48:43;1.65;;;0.93;;
11986;SDS011;6053;51.382;6.768;2023-09-08T14:51:15;1.83;;;1.27;;
11986;SDS011;6053;51.382;6.768;2023-09-08T14:53:48;0.70;;;0.70;;
11986;SDS011;6053;51.382;6.768;2023-09-08T14:56:19;2.97;;;1.33;;
11986;SDS011;6053;51.382;6.768;2023-09-08T14:58:52;1.50;;;1.20;;
11986;SDS011;6053;51.382;6.768;2023-09-08T15:01:20;0.95;;;0.80;;
11986;SDS011;6053;51.382;6.768;2023-09-08T15:03:48;2.03;;;1.23;;
11986;SDS011;6053;51.382;6.768;2023-09-08T15:06:17;1.73;;;1.20;;
11986;SDS011;6053;51.382;6.768;2023-09-08T15:08:53;2.10;;;1.13;;
11986;SDS011;6053;51.382;6.768;2023-09-08T15:11:21;1.57;;;1.03;;
11986;SDS011;6053;51.382;6.768;2023-09-08T15:13:49;0.52;;;0.52;;
11986;SDS011;6053;51.382;6.768;2023-09-08T15:16:19;1.20;;;0.60;;
11986;SDS011;6053;51.382;6.768;2023-09-08T15:18:47;1.00;;;1.00;;
11986;SDS011;6053;51.382;6.768;2023-09-08T15:21:25;1.73;;;0.90;;
11986;SDS011;6053;51.382;6.768;2023-09-08T15:23:59;1.30;;;1.00;;
11986;SDS011;6053;51.382;6.768;2023-09-08T15:26:28;1.10;;;1.00;;
11986;SDS011;6053;51.382;6.768;2023-09-08T15:29:00;2.03;;;1.48;;
11986;SDS011;6053;51.382;6.768;2023-09-08T15:31:30;2.05;;;1.30;;